Time;durP1;ratioP1;P1;durP2;ratioP2;P2;SDS_P1;SDS_P2;PMS_P1;PMS_P2;Temp;Humidity;BMP_temperature;BMP_pressure;BME280_temperature;BME280_humidity;BME280_pressure;Samples;Min_cycle;Max_cycle;Signal;HPM_P1;HPM_P2
2021/07/17 00:01:28;;;;;;;10.07;3.60;;;18.90;84.50;;;;;;5003896;28;20039;-74
2021/07/17 00:03:55;;;;;;;6.45;3.13;;;18.90;84.50;;;;;;4984071;28;20485;-74
2021/07/17 00:06:23;;;;;;;7.22;3.00;;;18.80;84.50;;;;;;4974225;28;20388;-74
2021/07/17 00:08:50;;;;;;;8.20;3.35;;;18.90;84.60;;;;;;5005578;28;20470;-74
2021/07/17 00:11:18;;;;;;;6.35;2.72;;;18.90;84.60;;;;;;4973725;28;20062;-74
2021/07/17 00:13:47;;;;;;;5.35;2.90;;;18.90;84.60;;;;;;4966728;28;20047;-74
2021/07/17 00:16:26;;;;;;;6.65;2.80;;;18.90;84.50;;;;;;4972468;28;20046;-74
2021/07/17 00:18:55;;;;;;;5.25;2.70;;;18.90;84.60;;;;;;4972661;28;20066;-74
2021/07/17 00:21:26;;;;;;;7.13;3.38;;;18.80;84.60;;;;;;4989833;28;20453;-74
2021/07/17 00:23:53;;;;;;;10.07;3.28;;;18.80;84.70;;;;;;4974134;28;20101;-74
2021/07/17 00:26:20;;;;;;;9.85;3.95;;;18.80;84.70;;;;;;4973632;28;20047;-74
2021/07/17 00:28:47;;;;;;;8.70;3.00;;;18.80;84.70;;;;;;5004514;28;20102;-74
2021/07/17 00:31:14;;;;;;;10.77;3.58;;;18.70;84.70;;;;;;4972870;28;20043;-74
2021/07/17 00:33:41;;;;;;;10.65;3.72;;;18.70;84.80;;;;;;4973603;28;20556;-74
2021/07/17 00:36:08;;;;;;;9.15;3.80;;;18.70;84.80;;;;;;4971557;28;20119;-74
2021/07/17 00:38:35;;;;;;;10.38;3.80;;;18.70;85.50;;;;;;5004013;28;20499;-74
2021/07/17 00:41:03;;;;;;;10.93;4.28;;;18.60;84.90;;;;;;4973366;28;20030;-74
2021/07/17 00:43:30;;;;;;;7.43;4.15;;;18.60;85.00;;;;;;4972908;28;20095;-74
2021/07/17 00:45:57;;;;;;;9.05;4.30;;;18.60;85.00;;;;;;5003944;28;20100;-74
2021/07/17 00:48:24;;;;;;;5.78;3.20;;;18.60;85.00;;;;;;4988516;28;20035;-74
2021/07/17 00:50:51;;;;;;;6.40;3.28;;;18.60;85.10;;;;;;4973091;28;20070;-74
2021/07/17 00:53:18;;;;;;;9.05;3.50;;;18.60;85.00;;;;;;4968310;28;20061;-74
2021/07/17 00:55:49;;;;;;;7.95;3.75;;;18.60;85.00;;;;;;5003826;28;20407;-74
2021/07/17 00:58:20;;;;;;;8.30;3.38;;;18.60;85.10;;;;;;4987601;28;20035;-74
2021/07/17 01:00:50;;;;;;;10.65;3.58;;;18.60;85.20;;;;;;4973174;28;20554;-74
2021/07/17 01:03:19;;;;;;;9.20;4.50;;;18.60;85.20;;;;;;4972355;28;20047;-74
2021/07/17 01:05:50;;;;;;;7.05;3.28;;;18.50;85.20;;;;;;4987099;28;20051;-74
2021/07/17 01:08:19;;;;;;;6.22;3.53;;;18.50;85.30;;;;;;4987088;28;20376;-74
2021/07/17 01:10:47;;;;;;;7.63;3.97;;;18.50;85.60;;;;;;5004701;28;20085;-74
2021/07/17 01:13:14;;;;;;;6.97;3.63;;;18.50;85.40;;;;;;4972665;28;20047;-74
2021/07/17 01:15:41;;;;;;;5.32;3.38;;;18.50;85.50;;;;;;4980524;28;20055;-74
2021/07/17 01:18:09;;;;;;;7.43;2.90;;;18.50;85.50;;;;;;4951160;28;20590;-74
2021/07/17 01:20:37;;;;;;;13.63;3.88;;;18.50;85.50;;;;;;4971738;28;20050;-74
2021/07/17 01:23:04;;;;;;;12.02;3.45;;;18.50;85.60;;;;;;4965834;28;20070;-73
2021/07/17 01:25:34;;;;;;;6.82;3.35;;;18.50;85.50;;;;;;4985586;28;20053;-73
2021/07/17 01:28:02;;;;;;;10.73;3.53;;;18.50;85.50;;;;;;4972803;28;20110;-74
2021/07/17 01:30:34;;;;;;;7.90;2.75;;;18.50;85.50;;;;;;5003168;28;20431;-75
2021/07/17 01:33:02;;;;;;;4.78;2.75;;;18.50;85.50;;;;;;4969627;28;20043;-74
2021/07/17 01:35:29;;;;;;;7.00;2.72;;;18.40;85.60;;;;;;4970744;28;20071;-73
2021/07/17 01:37:56;;;;;;;8.15;3.42;;;18.40;85.70;;;;;;4969959;28;20098;-75
2021/07/17 01:40:23;;;;;;;6.97;3.35;;;18.40;85.70;;;;;;4987435;28;20086;-75
2021/07/17 01:42:53;;;;;;;8.32;3.17;;;18.30;85.70;;;;;;4986739;28;20073;-75
2021/07/17 01:45:28;;;;;;;6.30;2.92;;;18.30;85.70;;;;;;4973104;28;20046;-75
2021/07/17 01:47:56;;;;;;;5.50;2.70;;;18.40;85.80;;;;;;4972143;28;20100;-75
2021/07/17 01:50:30;;;;;;;8.80;3.22;;;18.30;85.80;;;;;;4987656;28;20069;-75
2021/07/17 01:53:01;;;;;;;4.47;2.50;;;18.30;85.80;;;;;;4985996;28;20042;-75
2021/07/17 01:55:28;;;;;;;6.65;2.70;;;18.30;85.90;;;;;;4971782;28;20050;-75
2021/07/17 01:57:56;;;;;;;8.05;3.10;;;18.30;85.90;;;;;;4981569;28;20039;-75
2021/07/17 02:00:27;;;;;;;11.48;3.38;;;18.20;85.80;;;;;;4969758;28;20101;-75
2021/07/17 02:02:55;;;;;;;6.57;3.03;;;18.20;85.80;;;;;;4987633;28;20106;-75
2021/07/17 02:05:24;;;;;;;8.18;2.72;;;18.20;85.90;;;;;;4956303;28;20431;-75
2021/07/17 02:07:51;;;;;;;4.72;2.40;;;18.20;85.90;;;;;;5000654;28;20051;-75
2021/07/17 02:10:25;;;;;;;6.68;3.35;;;18.20;86.00;;;;;;4971466;28;20062;-75
2021/07/17 02:13:06;;;;;;;11.68;3.38;;;18.20;86.00;;;;;;4983378;28;20093;-75
2021/07/17 02:15:40;;;;;;;6.10;3.00;;;18.20;85.90;;;;;;4966380;28;20436;-75
2021/07/17 02:18:08;;;;;;;5.55;2.78;;;18.20;86.50;;;;;;4966535;28;20807;-75
2021/07/17 02:20:35;;;;;;;10.73;3.65;;;18.20;86.00;;;;;;4971292;28;20131;-75
2021/07/17 02:23:03;;;;;;;8.13;2.85;;;18.20;86.00;;;;;;4971728;28;20113;-75
2021/07/17 02:25:31;;;;;;;10.55;3.97;;;18.20;86.00;;;;;;5002524;28;20046;-75
2021/07/17 02:27:59;;;;;;;7.25;3.42;;;18.10;86.00;;;;;;4965851;28;20035;-74
2021/07/17 02:30:27;;;;;;;8.85;3.83;;;18.10;86.00;;;;;;4984969;28;20586;-75
2021/07/17 02:32:54;;;;;;;9.35;3.33;;;18.10;86.10;;;;;;4981363;28;20047;-75
2021/07/17 02:35:21;;;;;;;7.90;3.10;;;18.00;86.10;;;;;;4986088;28;20057;-75
2021/07/17 02:37:49;;;;;;;5.55;2.65;;;18.00;86.20;;;;;;4972160;28;20094;-75
2021/07/17 02:40:16;;;;;;;7.30;2.95;;;18.00;86.20;;;;;;4985848;28;20047;-75
2021/07/17 02:42:43;;;;;;;7.75;3.63;;;18.00;86.30;;;;;;4970811;28;20051;-75
2021/07/17 02:45:12;;;;;;;6.75;2.72;;;18.00;86.40;;;;;;4970908;28;20098;-75
2021/07/17 02:47:39;;;;;;;6.80;2.78;;;17.90;86.40;;;;;;5002100;28;20054;-75
2021/07/17 02:50:07;;;;;;;9.07;2.88;;;17.90;86.60;;;;;;4986565;28;20780;-75
2021/07/17 02:52:35;;;;;;;8.18;2.80;;;17.90;86.60;;;;;;4970803;28;20042;-75
2021/07/17 02:55:03;;;;;;;8.32;2.30;;;17.90;86.60;;;;;;4985940;28;20059;-75
2021/07/17 02:57:31;;;;;;;7.70;3.33;;;17.90;86.60;;;;;;4970529;28;20078;-75
2021/07/17 02:59:58;;;;;;;8.52;3.25;;;17.90;86.60;;;;;;5000472;28;20050;-75
2021/07/17 03:02:25;;;;;;;7.93;3.60;;;17.90;86.70;;;;;;4974389;28;20081;-75
2021/07/17 03:04:52;;;;;;;11.05;3.38;;;17.80;86.70;;;;;;5004071;28;20431;-75
2021/07/17 03:07:19;;;;;;;9.57;3.60;;;17.80;86.80;;;;;;4990183;28;20050;-75
2021/07/17 03:09:46;;;;;;;10.25;3.53;;;17.70;86.90;;;;;;4989207;28;20043;-75
2021/07/17 03:12:13;;;;;;;8.10;3.35;;;17.70;87.10;;;;;;4975324;28;20759;-75
2021/07/17 03:14:40;;;;;;;7.85;2.58;;;17.60;87.20;;;;;;4975753;28;20061;-74
2021/07/17 03:17:07;;;;;;;10.13;3.47;;;17.50;87.40;;;;;;4985895;28;20039;-75
2021/07/17 03:19:34;;;;;;;6.72;3.40;;;17.50;87.50;;;;;;4977468;28;20074;-75
2021/07/17 03:22:03;;;;;;;6.78;3.08;;;17.50;87.60;;;;;;4972938;28;20039;-75
2021/07/17 03:24:31;;;;;;;9.38;3.10;;;17.50;87.70;;;;;;4973638;28;20039;-75
2021/07/17 03:26:58;;;;;;;9.40;3.00;;;17.50;87.80;;;;;;4988009;28;20105;-75
2021/07/17 03:29:26;;;;;;;6.47;2.65;;;17.40;87.80;;;;;;4975488;28;20078;-75
2021/07/17 03:31:53;;;;;;;9.27;3.20;;;17.50;87.80;;;;;;4974082;28;20129;-75
2021/07/17 03:34:20;;;;;;;10.23;2.65;;;17.40;87.80;;;;;;4988943;28;20050;-75
2021/07/17 03:36:48;;;;;;;8.20;2.80;;;17.40;87.90;;;;;;4989385;28;20450;-75
2021/07/17 03:39:15;;;;;;;5.78;2.20;;;17.40;88.00;;;;;;4973495;28;20391;-75
2021/07/17 03:41:42;;;;;;;9.32;2.70;;;17.30;88.10;;;;;;4988422;28;20487;-75
2021/07/17 03:44:10;;;;;;;7.95;2.25;;;17.30;88.20;;;;;;4986216;28;20062;-75
2021/07/17 03:46:37;;;;;;;6.97;2.60;;;17.30;88.30;;;;;;5005420;28;20041;-75
2021/07/17 03:49:04;;;;;;;5.03;2.30;;;17.20;88.30;;;;;;4986471;28;20044;-75
2021/07/17 03:51:31;;;;;;;7.72;2.70;;;17.20;88.50;;;;;;4973389;28;20507;-74
2021/07/17 03:53:58;;;;;;;7.95;2.75;;;17.20;88.50;;;;;;4989346;28;20046;-73
2021/07/17 03:56:25;;;;;;;10.18;3.20;;;17.10;88.60;;;;;;4973047;28;20125;-74
2021/07/17 03:58:52;;;;;;;7.53;2.80;;;17.10;88.70;;;;;;5004937;28;20046;-73
2021/07/17 04:01:19;;;;;;;7.35;2.92;;;17.10;88.80;;;;;;5003719;28;20047;-74
2021/07/17 04:03:48;;;;;;;7.43;3.05;;;17.00;88.80;;;;;;4972783;28;20050;-73
2021/07/17 04:06:15;;;;;;;8.30;3.08;;;17.00;88.90;;;;;;4972023;28;20113;-74
2021/07/17 04:08:42;;;;;;;7.38;2.90;;;17.00;88.90;;;;;;4974179;28;20463;-73
2021/07/17 04:11:09;;;;;;;5.72;2.20;;;17.00;89.00;;;;;;4966278;28;20558;-74
2021/07/17 04:13:36;;;;;;;6.15;2.17;;;17.00;89.00;;;;;;4984413;28;20051;-74
2021/07/17 04:16:03;;;;;;;5.45;2.30;;;16.90;89.10;;;;;;5005098;28;20043;-75
2021/07/17 04:18:30;;;;;;;8.63;2.92;;;16.90;89.10;;;;;;5004500;28;20039;-75
2021/07/17 04:20:57;;;;;;;6.60;2.47;;;16.90;89.20;;;;;;4972572;28;20039;-75
2021/07/17 04:23:24;;;;;;;6.25;2.42;;;16.90;89.20;;;;;;4972726;28;20074;-75
2021/07/17 04:25:51;;;;;;;11.25;3.10;;;17.00;89.30;;;;;;4972612;28;20042;-75
2021/07/17 04:28:18;;;;;;;5.35;2.47;;;16.90;89.90;;;;;;4972148;28;20050;-75
2021/07/17 04:30:45;;;;;;;8.85;2.22;;;16.90;89.30;;;;;;4988951;28;20055;-75
2021/07/17 04:33:12;;;;;;;6.97;2.67;;;16.90;89.30;;;;;;5005035;28;20487;-75
2021/07/17 04:35:41;;;;;;;5.47;2.78;;;16.90;89.40;;;;;;5004780;28;20061;-75
2021/07/17 04:38:08;;;;;;;8.48;2.53;;;16.90;89.50;;;;;;4972643;28;20074;-75
2021/07/17 04:40:35;;;;;;;11.32;2.67;;;16.90;89.50;;;;;;4986699;28;20098;-75
2021/07/17 04:43:02;;;;;;;5.88;2.30;;;16.90;89.50;;;;;;4986526;28;20047;-75
2021/07/17 04:45:29;;;;;;;6.65;2.35;;;16.90;89.50;;;;;;4985672;28;20458;-75
2021/07/17 04:47:56;;;;;;;8.00;2.67;;;16.90;90.00;;;;;;4972560;28;20133;-75
2021/07/17 04:50:23;;;;;;;10.93;3.10;;;16.90;89.60;;;;;;4972598;28;20113;-75
2021/07/17 04:52:51;;;;;;;6.53;2.80;;;16.90;89.60;;;;;;4970733;28;20039;-75
2021/07/17 04:55:17;;;;;;;6.40;2.85;;;17.00;89.50;;;;;;5003416;28;20066;-75
2021/07/17 04:57:44;;;;;;;5.13;2.28;;;17.10;89.30;;;;;;5003966;28;20039;-75
2021/07/17 05:00:12;;;;;;;10.50;3.50;;;17.10;89.10;;;;;;4971230;28;20587;-75
2021/07/17 05:02:50;;;;;;;9.13;3.20;;;17.10;89.10;;;;;;4973640;28;20098;-75
2021/07/17 05:05:19;;;;;;;10.25;2.55;;;17.10;89.20;;;;;;4973225;28;20082;-75
2021/07/17 05:07:47;;;;;;;6.35;2.53;;;17.00;89.30;;;;;;5004122;28;20113;-75
2021/07/17 05:10:16;;;;;;;10.35;2.90;;;17.10;89.40;;;;;;4972860;28;20045;-75
2021/07/17 05:12:44;;;;;;;8.43;3.00;;;17.10;89.40;;;;;;4984822;28;20133;-75
2021/07/17 05:15:13;;;;;;;5.93;2.20;;;17.10;89.40;;;;;;4971179;28;20058;-75
2021/07/17 05:17:40;;;;;;;7.32;3.30;;;17.10;89.30;;;;;;4971651;28;20106;-75
2021/07/17 05:20:09;;;;;;;7.53;2.60;;;17.20;89.90;;;;;;4973249;28;20050;-75
2021/07/17 05:22:36;;;;;;;10.38;2.78;;;17.20;89.30;;;;;;5003095;28;20121;-75
2021/07/17 05:25:04;;;;;;;8.52;2.92;;;17.20;89.20;;;;;;4971972;28;20039;-75
2021/07/17 05:27:31;;;;;;;9.38;3.35;;;17.30;89.20;;;;;;4988272;28;20491;-75
2021/07/17 05:30:01;;;;;;;8.43;3.10;;;17.30;89.10;;;;;;4968158;28;20069;-75
2021/07/17 05:32:28;;;;;;;5.10;2.60;;;17.40;89.20;;;;;;4973250;28;20042;-74
2021/07/17 05:34:55;;;;;;;8.57;2.63;;;17.40;89.10;;;;;;4970754;28;20046;-74
2021/07/17 05:37:24;;;;;;;6.38;2.90;;;17.50;89.10;;;;;;4987331;28;20403;-73
2021/07/17 05:39:51;;;;;;;7.20;2.95;;;17.50;89.00;;;;;;4973115;28;20439;-74
2021/07/17 05:42:18;;;;;;;5.53;2.38;;;17.60;88.90;;;;;;4972019;28;20070;-73
2021/07/17 05:44:45;;;;;;;5.75;2.22;;;17.70;88.80;;;;;;4987595;28;20133;-73
2021/07/17 05:47:12;;;;;;;7.03;2.38;;;17.80;88.80;;;;;;4961213;28;20059;-75
2021/07/17 05:49:39;;;;;;;9.20;2.75;;;17.90;88.60;;;;;;5003674;28;20047;-75
2021/07/17 05:52:06;;;;;;;8.70;2.55;;;17.90;88.40;;;;;;4972881;28;20396;-75
2021/07/17 05:54:33;;;;;;;8.80;2.35;;;18.00;88.30;;;;;;4966800;28;20475;-75
2021/07/17 05:57:01;;;;;;;7.32;2.15;;;18.20;88.20;;;;;;4970892;28;20063;-75
2021/07/17 05:59:28;;;;;;;5.40;2.13;;;18.30;88.00;;;;;;4963198;28;20126;-75
2021/07/17 06:01:55;;;;;;;4.28;1.88;;;18.40;87.90;;;;;;4970005;28;20046;-75
2021/07/17 06:04:23;;;;;;;4.78;1.73;;;18.50;87.80;;;;;;4965496;28;20119;-75
2021/07/17 06:06:50;;;;;;;5.93;1.67;;;18.60;87.60;;;;;;4987138;28;20133;-73
2021/07/17 06:09:17;;;;;;;6.05;1.83;;;18.70;87.60;;;;;;4970755;28;20039;-73
2021/07/17 06:11:45;;;;;;;5.38;1.80;;;18.80;87.50;;;;;;4970090;28;20066;-73
2021/07/17 06:14:12;;;;;;;4.40;1.42;;;18.80;87.30;;;;;;4970825;28;20062;-74
2021/07/17 06:16:39;;;;;;;5.63;2.47;;;18.90;87.20;;;;;;4966058;28;20035;-74
2021/07/17 06:19:06;;;;;;;5.28;1.90;;;19.00;87.00;;;;;;4973063;28;20046;-73
2021/07/17 06:21:33;;;;;;;5.32;1.60;;;19.00;86.90;;;;;;4970661;28;20038;-74
2021/07/17 06:24:00;;;;;;;5.45;1.70;;;19.10;87.00;;;;;;4971229;28;20038;-74
2021/07/17 06:26:27;;;;;;;5.47;1.77;;;19.10;86.80;;;;;;4970413;28;20093;-74
2021/07/17 06:28:54;;;;;;;5.70;2.10;;;19.20;86.80;;;;;;4937260;28;20046;-74
2021/07/17 06:31:21;;;;;;;5.60;2.17;;;19.30;87.30;;;;;;4962137;28;20051;-74
2021/07/17 06:33:48;;;;;;;4.60;2.30;;;19.30;86.40;;;;;;4970384;28;20047;-73
2021/07/17 06:36:17;;;;;;;3.92;1.83;;;19.30;86.40;;;;;;4971809;28;20039;-74
2021/07/17 06:38:45;;;;;;;3.33;2.47;;;19.30;86.50;;;;;;4968362;28;20101;-74
2021/07/17 06:41:18;;;;;;;9.20;2.50;;;19.30;86.50;;;;;;4985030;28;20043;-75
2021/07/17 06:43:58;;;;;;;6.95;2.00;;;19.30;86.40;;;;;;4972176;28;20053;-75
2021/07/17 06:46:25;;;;;;;5.65;2.42;;;19.30;86.50;;;;;;4972125;28;20042;-75
2021/07/17 06:48:52;;;;;;;6.38;2.28;;;19.40;86.10;;;;;;4985046;28;20042;-75
2021/07/17 06:51:19;;;;;;;5.50;2.10;;;19.50;85.90;;;;;;4985437;28;20105;-75
2021/07/17 06:53:46;;;;;;;7.35;2.05;;;19.60;85.80;;;;;;4971520;28;20130;-75
2021/07/17 06:56:13;;;;;;;7.20;2.45;;;19.60;85.70;;;;;;4985471;28;20051;-75
2021/07/17 06:58:40;;;;;;;4.88;2.15;;;19.70;85.60;;;;;;4985255;28;20074;-75
2021/07/17 07:01:07;;;;;;;5.00;2.08;;;19.80;85.40;;;;;;4970687;28;20801;-75
2021/07/17 07:03:35;;;;;;;6.45;2.15;;;19.90;85.20;;;;;;4971971;28;20045;-75
2021/07/17 07:06:03;;;;;;;4.28;1.70;;;19.90;85.00;;;;;;4985008;28;20046;-75
2021/07/17 07:08:30;;;;;;;4.20;1.88;;;19.90;84.90;;;;;;4970741;28;20054;-74
2021/07/17 07:10:57;;;;;;;4.88;1.90;;;20.00;84.80;;;;;;4954049;28;20075;-74
2021/07/17 07:13:25;;;;;;;9.02;2.20;;;20.10;84.50;;;;;;4968003;28;20069;-75
2021/07/17 07:15:53;;;;;;;3.58;1.45;;;20.20;84.50;;;;;;4971529;28;20394;-75
2021/07/17 07:18:20;;;;;;;7.72;2.03;;;20.30;84.40;;;;;;4985516;28;20503;-74
2021/07/17 07:20:47;;;;;;;5.82;1.60;;;20.40;84.10;;;;;;5001978;28;20043;-74
2021/07/17 07:23:14;;;;;;;5.45;1.63;;;20.40;84.00;;;;;;4982760;28;20157;-74
2021/07/17 07:25:42;;;;;;;7.03;1.75;;;20.50;83.90;;;;;;5002169;28;20496;-74
2021/07/17 07:28:09;;;;;;;5.10;1.33;;;20.50;83.70;;;;;;4953144;28;20053;-74
2021/07/17 07:30:36;;;;;;;7.10;1.63;;;20.60;83.60;;;;;;4975537;28;20061;-73
2021/07/17 07:33:03;;;;;;;3.90;1.90;;;20.70;83.50;;;;;;4987008;28;20097;-73
2021/07/17 07:35:30;;;;;;;5.07;1.92;;;20.60;83.10;;;;;;4985468;28;20093;-74
2021/07/17 07:37:57;;;;;;;5.70;1.90;;;20.60;83.20;;;;;;4971881;28;20074;-74
2021/07/17 07:40:25;;;;;;;6.05;1.70;;;20.70;83.10;;;;;;5001910;28;20518;-74
2021/07/17 07:42:53;;;;;;;6.20;1.73;;;20.70;82.80;;;;;;4971801;28;20043;-74
2021/07/17 07:45:21;;;;;;;5.05;1.33;;;20.80;82.80;;;;;;4985061;28;20458;-73
2021/07/17 07:47:49;;;;;;;6.07;2.33;;;20.80;82.60;;;;;;4972978;28;20046;-74
2021/07/17 07:50:16;;;;;;;4.53;1.27;;;20.90;82.40;;;;;;5004995;28;20046;-73
2021/07/17 07:52:43;;;;;;;3.10;1.20;;;21.00;82.90;;;;;;4985035;28;20078;-74
2021/07/17 07:55:15;;;;;;;3.33;1.17;;;21.10;82.00;;;;;;4973952;28;20058;-73
2021/07/17 07:57:42;;;;;;;3.78;1.40;;;21.20;81.80;;;;;;4975241;28;20082;-74
2021/07/17 08:00:12;;;;;;;4.70;1.50;;;21.30;81.60;;;;;;4974614;28;20042;-74
2021/07/17 08:02:55;;;;;;;3.25;1.30;;;21.50;81.20;;;;;;4972104;28;20045;-75
2021/07/17 08:05:24;;;;;;;4.65;1.40;;;21.60;81.00;;;;;;4976413;28;20042;-74
2021/07/17 08:07:51;;;;;;;3.20;1.00;;;21.60;80.50;;;;;;4988372;28;20093;-74
2021/07/17 08:10:19;;;;;;;3.90;1.20;;;21.70;80.30;;;;;;4973192;28;20039;-74
2021/07/17 08:12:46;;;;;;;2.30;0.90;;;21.80;80.20;;;;;;4972948;28;20051;-75
2021/07/17 08:15:14;;;;;;;2.63;1.00;;;21.80;79.90;;;;;;4973989;28;20038;-75
2021/07/17 08:17:41;;;;;;;3.15;0.90;;;21.90;79.40;;;;;;4973316;28;20047;-75
2021/07/17 08:20:10;;;;;;;3.28;1.17;;;21.90;79.00;;;;;;4974000;28;20038;-74
2021/07/17 08:22:38;;;;;;;2.97;1.25;;;22.00;78.70;;;;;;4970213;28;20075;-74
2021/07/17 08:25:06;;;;;;;3.65;0.90;;;22.00;78.70;;;;;;4974389;28;20093;-75
2021/07/17 08:27:34;;;;;;;3.13;1.00;;;22.10;78.50;;;;;;4988469;28;20566;-75
2021/07/17 08:30:03;;;;;;;2.38;0.80;;;22.20;78.20;;;;;;4972935;28;20058;-74
2021/07/17 08:32:30;;;;;;;2.10;0.93;;;22.40;78.00;;;;;;4974615;28;20102;-75
2021/07/17 08:34:58;;;;;;;2.50;0.63;;;22.50;77.10;;;;;;4972232;28;20446;-74
2021/07/17 08:37:25;;;;;;;2.88;0.82;;;22.50;76.90;;;;;;4979548;28;20090;-75
2021/07/17 08:39:52;;;;;;;2.05;0.70;;;22.60;76.80;;;;;;4973603;28;20047;-75
2021/07/17 08:42:21;;;;;;;4.32;0.98;;;22.60;76.40;;;;;;4974392;28;20043;-75
2021/07/17 08:44:54;;;;;;;2.97;0.95;;;22.70;75.70;;;;;;4973284;28;20046;-75
2021/07/17 08:47:29;;;;;;;2.65;0.60;;;22.80;75.70;;;;;;4989026;28;20395;-75
2021/07/17 08:49:58;;;;;;;3.72;0.88;;;22.80;75.20;;;;;;4989116;28;20047;-75
2021/07/17 08:52:28;;;;;;;3.33;0.80;;;22.90;74.60;;;;;;4973044;28;20113;-75
2021/07/17 08:55:03;;;;;;;2.75;0.80;;;22.90;74.50;;;;;;4972402;28;20051;-75
2021/07/17 08:57:34;;;;;;;1.95;0.65;;;23.00;74.40;;;;;;4985279;28;20422;-75
2021/07/17 09:00:08;;;;;;;4.43;0.70;;;23.10;74.30;;;;;;4972854;28;20062;-73
2021/07/17 09:02:50;;;;;;;2.83;0.90;;;23.20;74.20;;;;;;4986025;28;20039;-75
2021/07/17 09:05:19;;;;;;;3.13;0.50;;;23.20;73.60;;;;;;4986553;28;20039;-75
2021/07/17 09:07:46;;;;;;;2.95;0.60;;;23.20;73.20;;;;;;4969578;28;20070;-74
2021/07/17 09:10:55;;;;;;;1.75;0.50;;;23.30;73.30;;;;;;4972837;28;20054;-74
2021/07/17 09:13:35;;;;;;;2.38;0.77;;;23.40;73.10;;;;;;4971885;28;20042;-76
2021/07/17 09:16:12;;;;;;;1.40;0.45;;;23.50;72.30;;;;;;4971890;28;20045;-75
2021/07/17 09:18:46;;;;;;;1.10;0.40;;;23.60;72.20;;;;;;4997779;28;20047;-75
2021/07/17 09:21:34;;;;;;;2.72;0.80;;;23.60;72.20;;;;;;4971858;28;20047;-75
2021/07/17 09:24:05;;;;;;;3.03;0.60;;;23.70;71.30;;;;;;5003241;28;20050;-75
2021/07/17 09:26:35;;;;;;;2.25;0.65;;;23.70;71.80;;;;;;4975172;28;20047;-74
2021/07/17 09:29:12;;;;;;;3.13;0.70;;;23.80;71.70;;;;;;4986163;28;20058;-75
2021/07/17 09:31:54;;;;;;;2.03;0.47;;;23.90;70.80;;;;;;4972066;28;20133;-75
2021/07/17 09:34:25;;;;;;;2.08;0.60;;;23.90;70.50;;;;;;4979270;28;20066;-77
2021/07/17 09:37:11;;;;;;;1.38;0.52;;;23.90;70.90;;;;;;4977438;28;20531;-76
2021/07/17 09:39:52;;;;;;;1.70;0.45;;;23.90;70.80;;;;;;5001648;28;20047;-76
2021/07/17 09:42:21;;;;;;;1.95;0.60;;;24.00;70.60;;;;;;4965849;28;20031;-76
2021/07/17 09:44:52;;;;;;;2.00;0.70;;;24.00;70.40;;;;;;4972261;28;20118;-76
2021/07/17 09:47:21;;;;;;;0.82;0.30;;;24.00;70.40;;;;;;4936275;28;20373;-76
2021/07/17 09:49:49;;;;;;;1.67;0.50;;;24.10;70.30;;;;;;4968747;28;20039;-76
2021/07/17 09:52:20;;;;;;;1.48;0.43;;;24.20;70.00;;;;;;4968175;28;20458;-74
2021/07/17 09:55:08;;;;;;;2.08;0.52;;;24.20;69.60;;;;;;5002494;28;20046;-75
2021/07/17 09:57:36;;;;;;;1.70;0.40;;;24.30;69.40;;;;;;5001423;28;20051;-77
2021/07/17 10:00:29;;;;;;;2.85;0.70;;;24.30;69.30;;;;;;4994834;28;20055;-76
2021/07/17 10:02:59;;;;;;;2.72;0.30;;;24.40;68.50;;;;;;4959600;28;20047;-77
2021/07/17 10:05:38;;;;;;;3.75;0.77;;;24.40;68.80;;;;;;4971871;28;20098;-76
2021/07/17 10:08:09;;;;;;;0.82;0.40;;;24.50;68.30;;;;;;4970917;28;20056;-76
2021/07/17 10:10:36;;;;;;;1.85;0.55;;;24.60;68.30;;;;;;4972096;28;20042;-75
2021/07/17 10:13:03;;;;;;;1.63;0.32;;;24.70;68.30;;;;;;4986672;28;20081;-76
2021/07/17 10:15:31;;;;;;;2.83;0.73;;;24.80;68.10;;;;;;4986028;28;20093;-76
2021/07/17 10:18:23;;;;;;;2.17;0.43;;;24.90;67.70;;;;;;4973001;28;20041;-75
2021/07/17 10:20:55;;;;;;;1.17;0.30;;;25.00;67.60;;;;;;4989687;28;20058;-75
2021/07/17 10:23:23;;;;;;;2.20;0.40;;;25.00;67.40;;;;;;4971738;28;20042;-75
2021/07/17 10:25:51;;;;;;;1.25;0.32;;;25.00;67.40;;;;;;4987347;28;20062;-74
2021/07/17 10:28:18;;;;;;;2.30;0.40;;;25.10;67.10;;;;;;4964885;28;20086;-74
2021/07/17 10:30:46;;;;;;;1.00;0.30;;;25.10;66.60;;;;;;4957455;28;20043;-74
2021/07/17 10:33:13;;;;;;;1.75;0.43;;;25.20;66.60;;;;;;5001682;28;20047;-74
2021/07/17 10:35:43;;;;;;;1.75;0.40;;;25.30;66.30;;;;;;4987372;28;20122;-75
2021/07/17 10:38:11;;;;;;;0.60;0.30;;;25.30;66.30;;;;;;4966530;28;20398;-74
2021/07/17 10:40:41;;;;;;;1.60;0.30;;;25.40;66.30;;;;;;4965855;28;20042;-75
2021/07/17 10:43:09;;;;;;;1.23;0.40;;;25.50;65.90;;;;;;4978263;28;20054;-75
2021/07/17 10:45:44;;;;;;;1.40;0.40;;;25.50;65.90;;;;;;4972019;28;20207;-74
2021/07/17 10:48:32;;;;;;;2.35;0.38;;;25.60;65.70;;;;;;5002422;28;20046;-74
2021/07/17 10:51:23;;;;;;;1.17;0.50;;;25.60;65.10;;;;;;4967201;28;20506;-75
2021/07/17 10:57:30;;;;;;;2.28;0.60;;;25.70;63.80;;;;;;4967017;28;20086;-75
2021/07/17 10:59:57;;;;;;;1.50;0.50;;;25.70;63.80;;;;;;4972165;28;20039;-74
2021/07/17 11:02:25;;;;;;;1.10;0.40;;;25.70;63.70;;;;;;4970253;28;20073;-75
2021/07/17 11:04:55;;;;;;;2.75;0.40;;;25.80;64.10;;;;;;4970730;28;20166;-73
2021/07/17 11:07:22;;;;;;;1.95;0.38;;;25.80;63.80;;;;;;4970821;28;20039;-75
2021/07/17 11:09:55;;;;;;;1.13;0.50;;;25.90;63.80;;;;;;4968014;28;20039;-75
2021/07/17 11:12:27;;;;;;;0.80;0.30;;;26.00;63.50;;;;;;4970810;28;20105;-75
2021/07/17 11:15:09;;;;;;;0.82;0.38;;;26.00;63.40;;;;;;4969702;28;20051;-74
2021/07/17 11:17:51;;;;;;;2.25;0.50;;;26.10;63.30;;;;;;4985128;28;20648;-75
2021/07/17 11:20:22;;;;;;;2.08;0.60;;;26.20;62.60;;;;;;4984654;28;20031;-74
2021/07/17 11:23:11;;;;;;;1.25;0.32;;;26.20;62.60;;;;;;5005369;28;20451;-74
2021/07/17 11:25:56;;;;;;;1.25;0.43;;;26.30;62.70;;;;;;4973711;28;20077;-74
2021/07/17 11:28:54;;;;;;;0.60;0.20;;;26.40;62.80;;;;;;4975107;28;20566;-74
2021/07/17 11:31:45;;;;;;;0.65;0.30;;;26.40;62.60;;;;;;4975017;28;20487;-74
2021/07/17 11:34:14;;;;;;;2.65;0.50;;;26.50;62.30;;;;;;4971972;28;20117;-74
2021/07/17 11:36:42;;;;;;;0.77;0.35;;;26.60;62.50;;;;;;4989548;28;20102;-76
2021/07/17 11:39:15;;;;;;;2.47;0.70;;;26.70;61.50;;;;;;4973341;28;20403;-75
2021/07/17 11:41:42;;;;;;;2.17;0.30;;;26.70;61.60;;;;;;5005565;28;20770;-76
2021/07/17 11:44:09;;;;;;;1.85;0.60;;;26.80;61.20;;;;;;4974783;28;20373;-76
2021/07/17 11:46:51;;;;;;;1.55;0.50;;;26.80;61.30;;;;;;4975451;28;20039;-75
2021/07/17 11:49:18;;;;;;;1.92;0.32;;;26.70;60.70;;;;;;4989951;28;20109;-76
2021/07/17 11:51:51;;;;;;;0.90;0.40;;;26.80;60.90;;;;;;5005919;28;20070;-75
2021/07/17 11:54:52;;;;;;;1.27;0.40;;;27.00;60.80;;;;;;4997832;28;20685;-76
2021/07/17 11:57:24;;;;;;;1.48;0.50;;;27.20;60.40;;;;;;4986672;28;20499;-76
2021/07/17 11:59:59;;;;;;;1.05;0.40;;;27.40;60.40;;;;;;4974687;28;20113;-76
2021/07/17 12:02:31;;;;;;;1.58;0.52;;;27.60;59.70;;;;;;4989509;28;20066;-75
2021/07/17 12:05:08;;;;;;;1.88;0.47;;;27.80;59.00;;;;;;4974267;28;20134;-75
2021/07/17 12:07:38;;;;;;;1.35;0.40;;;28.10;58.10;;;;;;4970943;28;20143;-75
2021/07/17 12:10:26;;;;;;;1.42;0.40;;;28.40;58.00;;;;;;4972049;28;20109;-75
2021/07/17 12:13:03;;;;;;;1.40;0.40;;;28.70;57.20;;;;;;4972854;28;20125;-76
2021/07/17 12:15:35;;;;;;;1.20;0.50;;;28.80;57.00;;;;;;5004495;28;20047;-75
2021/07/17 12:18:09;;;;;;;1.30;0.50;;;28.90;56.20;;;;;;4972419;28;20047;-76
2021/07/17 12:20:41;;;;;;;1.45;0.50;;;29.20;56.20;;;;;;4988206;28;20487;-76
2021/07/17 12:23:11;;;;;;;1.50;0.52;;;29.40;55.70;;;;;;5004121;28;20038;-76
2021/07/17 12:25:44;;;;;;;3.83;0.55;;;29.70;55.50;;;;;;4973670;28;20054;-76
2021/07/17 12:28:15;;;;;;;2.30;0.60;;;30.00;55.40;;;;;;4970723;28;20562;-74
2021/07/17 12:30:53;;;;;;;;;;;30.30;54.80;;;;;;4978054;28;20414;-77
2021/07/17 12:33:34;;;;;;;1.45;0.40;;;30.40;54.90;;;;;;4990967;28;19976;-77
2021/07/17 12:36:25;;;;;;;2.90;0.40;;;30.70;54.80;;;;;;4989113;28;20507;-73
2021/07/17 12:38:59;;;;;;;2.05;0.50;;;30.90;53.50;;;;;;4972683;28;20097;-74
2021/07/17 12:41:29;;;;;;;1.27;0.40;;;30.90;53.20;;;;;;4968541;28;20491;-74
2021/07/17 12:44:00;;;;;;;0.57;0.40;;;30.80;53.00;;;;;;4970749;28;20046;-74
2021/07/17 12:46:32;;;;;;;1.25;0.30;;;31.00;53.20;;;;;;4972107;28;20122;-74
2021/07/17 12:49:13;;;;;;;1.33;0.40;;;31.20;52.60;;;;;;4971718;28;20057;-74
2021/07/17 12:51:48;;;;;;;1.10;0.38;;;31.50;52.20;;;;;;4966881;28;20043;-74
2021/07/17 12:54:24;;;;;;;1.10;0.40;;;31.50;51.20;;;;;;4973329;28;20042;-74
2021/07/17 12:56:54;;;;;;;1.15;0.30;;;31.50;51.60;;;;;;5004353;28;20800;-75
2021/07/17 12:59:28;;;;;;;1.77;0.50;;;31.70;51.20;;;;;;4971089;28;20039;-74
2021/07/17 13:01:59;;;;;;;2.63;0.43;;;31.80;50.50;;;;;;4988298;28;20057;-74
2021/07/17 13:04:27;;;;;;;1.38;0.30;;;31.90;50.50;;;;;;4987664;28;20046;-75